Satura, Russia
Current Conditions -  °F | °C
As of 10:30 AM on Friday 31 Oct 2014 (Local Time) from UUDD Reporting Station
Haze Haze  
Wind Chill: 34°   Ceiling: 3000
Heat Index: 39°   Visibility: 3mi
Dew Point: 25°   Wind: 7mph
Humidity: 56%   Direction: 300°WNW
Pressure: 30.06"   Gusts: NA
Location:  55.57°N, 39.54°E
Report Text: UUDD 310730Z 30003MPS 5000 HZ BKN030 04/M04 Q1018 3201009582010095 NOSIG
Loading
Personal Weather Stations






























Interactive Weather Map
Tropical Storm Tracking
New forecast layout! Learn more

10-Day Weather Forecast

Advertisements
Track Severe Weather on mobile